Time;durP1;ratioP1;P1;durP2;ratioP2;P2;SDS_P1;SDS_P2;PMS_P1;PMS_P2;Temp;Humidity;BMP_temperature;BMP_pressure;BME280_temperature;BME280_humidity;BME280_pressure;Samples;Min_cycle;Max_cycle;Signal;HPM_P1;HPM_P2
2024/04/18 00:01:44;;;;;;;4.40;2.40;;;;;;;9.54;77.49;99129.47;5522245;25;19993;-58
2024/04/18 00:04:15;;;;;;;4.43;2.53;;;;;;;9.33;78.24;99123.06;5521818;25;20403;-55
2024/04/18 00:06:43;;;;;;;4.72;2.67;;;;;;;9.15;77.72;99123.44;5521863;25;20004;-57
2024/04/18 00:09:14;;;;;;;5.65;2.63;;;;;;;9.34;77.81;99130.06;5522014;25;20024;-59
2024/04/18 00:11:41;;;;;;;4.82;2.45;;;;;;;9.21;77.57;99130.13;5521891;25;20002;-55
2024/04/18 00:14:16;;;;;;;4.85;2.53;;;;;;;9.38;76.59;99120.94;5521869;25;20366;-57
2024/04/18 00:16:46;;;;;;;4.10;2.70;;;;;;;9.26;75.96;99129.78;5525297;25;20000;-58
2024/04/18 00:19:18;;;;;;;5.32;3.05;;;;;;;9.20;75.92;99131.09;5525824;25;20003;-57
2024/04/18 00:21:45;;;;;;;4.57;2.80;;;;;;;9.31;75.23;99127.66;5525476;25;20005;-57
2024/04/18 00:24:16;;;;;;;5.22;2.92;;;;;;;9.17;75.02;99126.84;5525283;25;20016;-58
2024/04/18 00:26:43;;;;;;;4.85;2.58;;;;;;;9.07;75.30;99120.50;5525576;25;19997;-57
2024/04/18 00:29:14;;;;;;;6.43;3.10;;;;;;;9.10;74.92;99122.91;5525288;25;20009;-58
2024/04/18 00:31:41;;;;;;;5.05;2.90;;;;;;;9.13;74.63;99120.03;5525085;25;19998;-58
2024/04/18 00:34:14;;;;;;;4.13;2.80;;;;;;;9.05;74.63;99122.38;5525472;25;20029;-56
2024/04/18 00:36:41;;;;;;;6.63;3.10;;;;;;;9.24;74.66;99118.41;5525275;25;20047;-57
2024/04/18 00:39:11;;;;;;;4.70;2.83;;;;;;;8.98;75.66;99117.63;5525436;25;20027;-54
2024/04/18 00:41:39;;;;;;;5.18;3.50;;;;;;;9.22;74.74;99129.16;5525027;25;20361;-59
2024/04/18 00:44:10;;;;;;;5.07;2.90;;;;;;;9.00;74.79;99124.53;5525044;25;19997;-58
2024/04/18 00:46:42;;;;;;;4.95;2.80;;;;;;;9.15;74.70;99122.56;5525021;25;19994;-55
2024/04/18 00:49:12;;;;;;;4.65;2.95;;;;;;;8.89;75.03;99122.66;5524969;25;19997;-56
2024/04/18 00:51:43;;;;;;;5.75;3.30;;;;;;;8.94;75.94;99122.31;5524916;25;19997;-56
2024/04/18 00:54:13;;;;;;;4.72;3.00;;;;;;;8.98;75.34;99121.16;5525116;25;19994;-58
2024/04/18 00:56:46;;;;;;;5.20;3.30;;;;;;;9.18;74.74;99123.22;5524796;25;20021;-58
2024/04/18 00:59:15;;;;;;;4.57;2.85;;;;;;;9.13;73.98;99120.03;5524903;25;20053;-57
2024/04/18 01:01:48;;;;;;;7.88;3.47;;;;;;;8.93;74.50;99131.25;5524612;25;19999;-56
2024/04/18 01:04:19;;;;;;;5.68;3.13;;;;;;;8.67;75.30;99121.59;5524612;25;19993;-58
2024/04/18 01:06:50;;;;;;;7.55;3.60;;;;;;;8.65;75.97;99129.69;5524677;25;20008;-57
2024/04/18 01:09:19;;;;;;;5.45;3.30;;;;;;;8.52;76.76;99135.00;5524269;25;19998;-57
2024/04/18 01:11:49;;;;;;;5.43;3.47;;;;;;;8.63;76.42;99134.25;5524513;25;19997;-57
2024/04/18 01:14:17;;;;;;;5.72;3.10;;;;;;;8.80;75.44;99133.94;5524753;25;20001;-58
2024/04/18 01:16:48;;;;;;;6.05;3.22;;;;;;;8.88;75.45;99136.06;5524635;25;20004;-55
2024/04/18 01:19:19;;;;;;;4.50;2.88;;;;;;;8.77;76.09;99131.47;5524482;25;19993;-56
2024/04/18 01:21:49;;;;;;;6.65;3.63;;;;;;;8.59;76.14;99136.28;5524251;25;19998;-56
2024/04/18 01:24:18;;;;;;;7.68;3.45;;;;;;;8.71;75.95;99125.75;5524759;25;20074;-56
2024/04/18 01:26:51;;;;;;;5.15;3.30;;;;;;;8.83;75.22;99132.88;5522807;25;20068;-59
2024/04/18 01:29:19;;;;;;;6.53;3.50;;;;;;;8.84;75.15;99134.56;5524296;25;20004;-58
2024/04/18 01:31:49;;;;;;;4.55;2.95;;;;;;;8.92;75.06;99137.53;5524270;25;19998;-57
2024/04/18 01:34:18;;;;;;;7.35;3.70;;;;;;;8.99;74.73;99133.47;5524159;25;19997;-57
2024/04/18 01:36:48;;;;;;;6.97;3.22;;;;;;;8.79;74.65;99134.91;5523965;25;19997;-56
2024/04/18 01:39:16;;;;;;;6.70;3.45;;;;;;;8.81;74.62;99134.78;5524101;25;19994;-58
2024/04/18 01:41:46;;;;;;;5.38;3.10;;;;;;;8.76;74.79;99148.38;5524093;25;20531;-58
2024/04/18 01:44:20;;;;;;;5.38;3.58;;;;;;;8.80;74.92;99149.03;5523962;25;20368;-57
2024/04/18 01:46:50;;;;;;;;;;;;;;;8.80;75.24;99141.91;5524714;25;20427;-58
2024/04/18 01:49:18;;;;;;;5.15;3.22;;;;;;;8.95;74.81;99147.94;5523916;25;20587;-57
2024/04/18 01:51:48;;;;;;;5.90;3.42;;;;;;;8.97;75.02;99156.66;5524159;25;20030;-58
2024/04/18 01:54:15;;;;;;;4.70;3.00;;;;;;;8.69;75.47;99152.47;5524170;25;20008;-58
2024/04/18 01:56:46;;;;;;;5.40;3.40;;;;;;;8.69;75.06;99156.94;5523843;25;20065;-57
2024/04/18 01:59:14;;;;;;;5.18;3.22;;;;;;;8.96;75.52;99159.44;5523989;25;19994;-58
2024/04/18 02:01:47;;;;;;;5.03;3.25;;;;;;;9.00;74.34;99160.94;5523909;25;20069;-58
2024/04/18 02:04:17;;;;;;;5.85;3.17;;;;;;;9.25;73.62;99158.19;5523805;25;20009;-57
2024/04/18 02:06:50;;;;;;;6.25;3.38;;;;;;;9.03;73.37;99166.88;5523784;25;19998;-57
2024/04/18 02:09:18;;;;;;;4.80;3.40;;;;;;;8.95;72.76;99163.91;5523827;25;19997;-57
2024/04/18 02:11:48;;;;;;;5.70;3.30;;;;;;;8.72;73.99;99172.66;5523476;25;20309;-58
2024/04/18 02:14:19;;;;;;;6.10;3.53;;;;;;;9.01;72.63;99168.78;5523542;25;20009;-59
2024/04/18 02:16:52;;;;;;;6.15;3.67;;;;;;;8.96;71.48;99168.25;5523460;25;20001;-56
2024/04/18 02:19:20;;;;;;;5.18;3.50;;;;;;;9.14;71.73;99171.44;5523369;25;19997;-59
2024/04/18 02:21:50;;;;;;;4.85;3.22;;;;;;;8.90;71.48;99166.06;5523539;25;20020;-56
2024/04/18 02:24:18;;;;;;;6.20;3.75;;;;;;;8.97;71.19;99167.28;5523521;25;20005;-60
2024/04/18 02:26:50;;;;;;;6.55;3.63;;;;;;;8.77;70.93;99170.50;5523351;25;20284;-56
2024/04/18 02:29:17;;;;;;;6.53;3.72;;;;;;;8.44;72.11;99174.56;5523302;25;19998;-58
2024/04/18 02:31:48;;;;;;;5.93;3.75;;;;;;;8.34;73.00;99168.13;5523304;25;20012;-59
2024/04/18 02:34:18;;;;;;;5.53;3.65;;;;;;;8.39;73.52;99175.81;5523041;25;20005;-58
2024/04/18 02:36:48;;;;;;;5.75;3.95;;;;;;;8.38;73.28;99180.28;5523230;25;20237;-58
2024/04/18 02:39:16;;;;;;;5.82;3.70;;;;;;;8.40;73.96;99178.38;5522408;25;20016;-57
2024/04/18 02:41:47;;;;;;;5.25;3.75;;;;;;;8.43;73.56;99180.81;5522971;25;19995;-59
2024/04/18 02:44:15;;;;;;;6.15;3.80;;;;;;;8.21;74.93;99177.91;5523161;25;20024;-60
2024/04/18 02:46:45;;;;;;;5.90;3.88;;;;;;;8.25;75.03;99184.69;5523038;25;20499;-57
2024/04/18 02:49:14;;;;;;;7.20;4.10;;;;;;;8.29;75.24;99180.88;5523292;25;20004;-57
2024/04/18 02:51:47;;;;;;;7.07;4.53;;;;;;;8.59;74.46;99183.28;5523255;25;19997;-55
2024/04/18 02:54:15;;;;;;;8.82;4.03;;;;;;;8.75;74.34;99183.91;5522966;25;20001;-56
2024/04/18 02:56:46;;;;;;;6.93;4.22;;;;;;;8.73;74.16;99180.50;5523138;25;20026;-58
2024/04/18 02:59:18;;;;;;;5.72;4.10;;;;;;;8.69;74.13;99186.16;5523020;25;20073;-55
2024/04/18 03:01:47;;;;;;;;;;;;;;;8.75;73.31;99185.72;5523596;25;20065;-56
2024/04/18 03:04:17;;;;;;;7.88;4.20;;;;;;;8.84;73.85;99187.75;5522920;25;19991;-57
2024/04/18 03:06:48;;;;;;;6.50;3.88;;;;;;;8.93;73.76;99187.09;5522666;25;19997;-57
2024/04/18 03:09:18;;;;;;;6.55;4.25;;;;;;;8.99;73.50;99186.69;5522619;25;20429;-58
2024/04/18 03:11:46;;;;;;;6.90;4.45;;;;;;;9.04;73.30;99189.00;5522802;25;20008;-60
2024/04/18 03:14:17;;;;;;;5.80;3.85;;;;;;;8.81;73.17;99191.47;5521189;26;20013;-58
2024/04/18 03:16:44;;;;;;;8.13;4.13;;;;;;;8.87;73.31;99188.38;5522816;25;19993;-59
2024/04/18 03:19:14;;;;;;;6.13;3.70;;;;;;;8.95;73.58;99190.50;5522603;25;19997;-59
2024/04/18 03:21:44;;;;;;;6.60;3.97;;;;;;;8.96;73.79;99191.34;5522837;25;20025;-57
2024/04/18 03:24:21;;;;;;;7.28;4.50;;;;;;;8.53;75.30;99200.50;5522600;25;20137;-59
2024/04/18 03:26:51;;;;;;;6.95;4.40;;;;;;;8.86;74.75;99199.13;5522432;25;19997;-58
2024/04/18 03:29:21;;;;;;;5.88;4.25;;;;;;;8.83;74.38;99196.69;5522633;25;20619;-58
2024/04/18 03:31:50;;;;;;;7.72;4.60;;;;;;;8.82;74.78;99197.63;5522422;25;19993;-58
2024/04/18 03:34:21;;;;;;;8.02;4.43;;;;;;;8.80;75.16;99199.56;5522561;25;19993;-58
2024/04/18 03:36:52;;;;;;;7.80;5.10;;;;;;;8.83;75.44;99197.53;5523296;25;20009;-58
2024/04/18 03:39:25;;;;;;;5.95;4.30;;;;;;;8.80;74.79;99207.53;5523509;25;20023;-59
2024/04/18 03:41:56;;;;;;;7.00;4.53;;;;;;;8.62;76.51;99203.50;5522909;25;20005;-58
2024/04/18 03:44:27;;;;;;;6.93;5.18;;;;;;;8.60;76.71;99201.78;5522780;25;19997;-60
2024/04/18 03:46:54;;;;;;;6.65;4.70;;;;;;;8.76;76.92;99201.56;5522654;25;19993;-58
2024/04/18 03:49:24;;;;;;;8.68;5.43;;;;;;;8.93;76.89;99203.06;5521669;25;20032;-57
2024/04/18 03:51:52;;;;;;;9.18;4.97;;;;;;;9.00;77.75;99199.00;5522545;25;20403;-57
2024/04/18 03:54:22;;;;;;;6.68;4.57;;;;;;;8.98;79.46;99198.28;5522745;25;19997;-57
2024/04/18 03:56:53;;;;;;;6.78;5.13;;;;;;;8.96;79.46;99202.81;5522726;25;20038;-56
2024/04/18 03:59:23;;;;;;;10.93;5.28;;;;;;;9.08;80.25;99201.16;5522419;25;20066;-55
2024/04/18 04:01:51;;;;;;;8.02;5.20;;;;;;;8.81;81.82;99204.78;5522268;25;20008;-60
2024/04/18 04:04:21;;;;;;;7.78;4.97;;;;;;;8.75;82.82;99204.34;5522336;25;20021;-59
2024/04/18 04:06:49;;;;;;;7.72;5.22;;;;;;;8.93;81.21;99203.06;5522151;25;20004;-58
2024/04/18 04:09:20;;;;;;;7.88;4.82;;;;;;;9.01;81.45;99197.22;5522027;25;20008;-57
2024/04/18 04:11:47;;;;;;;8.18;5.28;;;;;;;9.06;81.65;99203.88;5522021;25;20004;-58
2024/04/18 04:14:20;;;;;;;8.38;5.28;;;;;;;9.14;81.31;99198.03;5522016;25;20492;-56
2024/04/18 04:16:48;;;;;;;8.32;5.03;;;;;;;9.12;81.31;99216.75;5522029;25;20006;-56
2024/04/18 04:19:18;;;;;;;7.68;5.18;;;;;;;9.14;82.10;99217.50;5521836;25;20004;-58
2024/04/18 04:21:46;;;;;;;8.70;5.07;;;;;;;9.20;80.72;99215.38;5521972;25;19997;-60
2024/04/18 04:24:17;;;;;;;8.05;5.30;;;;;;;9.13;80.82;99222.94;5521848;25;20034;-58
2024/04/18 04:26:45;;;;;;;10.65;5.72;;;;;;;9.18;80.75;99221.66;5521913;25;20014;-58
2024/04/18 04:29:15;;;;;;;7.95;5.18;;;;;;;9.25;80.09;99223.88;5521713;25;20017;-57
2024/04/18 04:31:46;;;;;;;8.82;5.32;;;;;;;9.24;81.05;99232.81;5521529;25;19999;-58
2024/04/18 04:34:16;;;;;;;10.30;5.55;;;;;;;9.15;80.83;99236.97;5521697;25;20009;-58
2024/04/18 04:36:44;;;;;;;8.70;5.60;;;;;;;9.00;81.15;99238.06;5521758;25;20045;-57
2024/04/18 04:39:15;;;;;;;8.50;5.50;;;;;;;8.92;80.72;99238.59;5521710;25;20006;-59
2024/04/18 04:41:43;;;;;;;8.98;5.82;;;;;;;8.85;80.66;99237.31;5521512;25;19997;-63
2024/04/18 04:44:12;;;;;;;10.50;5.85;;;;;;;8.79;80.98;99245.72;5521320;25;19998;-56
2024/04/18 04:46:40;;;;;;;9.65;6.07;;;;;;;8.66;82.85;99243.03;5520967;25;20001;-57
2024/04/18 04:49:14;;;;;;;8.90;5.97;;;;;;;8.43;83.77;99247.25;5521747;25;20335;-56
2024/04/18 04:51:41;;;;;;;;;;;;;;;8.55;82.80;99251.75;5521659;25;20100;-57
2024/04/18 04:54:12;;;;;;;9.32;6.22;;;;;;;8.43;83.83;99249.06;5521438;25;19931;-57
2024/04/18 04:56:40;;;;;;;10.45;6.38;;;;;;;8.81;83.04;99257.09;5521363;25;19995;-57
2024/04/18 04:59:13;;;;;;;9.98;6.35;;;;;;;8.98;81.46;99247.97;5521054;25;20019;-58
2024/04/18 05:01:41;;;;;;;10.80;6.82;;;;;;;8.95;80.57;99254.31;5523213;25;20522;-55
2024/04/18 05:04:14;;;;;;;10.82;6.50;;;;;;;8.98;79.68;99259.47;5525612;25;20061;-57
2024/04/18 05:06:42;;;;;;;9.88;6.40;;;;;;;8.85;79.58;99263.91;5525645;25;19997;-57
2024/04/18 05:09:13;;;;;;;11.50;6.90;;;;;;;8.62;80.71;99264.63;5525423;25;20001;-55
2024/04/18 05:11:40;;;;;;;10.90;7.18;;;;;;;8.62;80.71;99261.97;5525279;25;20024;-58
2024/04/18 05:14:11;;;;;;;12.30;6.70;;;;;;;8.39;82.94;99267.00;5525287;25;20005;-57
2024/04/18 05:16:38;;;;;;;9.80;6.82;;;;;;;8.38;82.86;99269.75;5525180;25;20072;-54
2024/04/18 05:19:09;;;;;;;12.07;7.28;;;;;;;8.24;81.83;99273.31;5525041;25;19994;-56
2024/04/18 05:21:40;;;;;;;10.50;6.93;;;;;;;8.35;81.30;99277.94;5524956;25;20029;-58
2024/04/18 05:24:11;;;;;;;10.80;6.45;;;;;;;8.37;81.11;99284.00;5524979;25;20001;-58
2024/04/18 05:26:39;;;;;;;10.38;6.70;;;;;;;8.51;80.57;99287.47;5523161;26;20000;-57
2024/04/18 05:31:55;;;;;;;12.95;8.05;;;;;;;8.30;82.80;99294.19;5525191;25;19997;-57
2024/04/18 05:34:25;;;;;;;13.63;7.55;;;;;;;8.25;83.66;99297.13;5524718;25;20132;-58
2024/04/18 05:36:58;;;;;;;12.23;7.78;;;;;;;8.31;83.15;99295.88;5524759;25;20012;-55
2024/04/18 05:39:28;;;;;;;12.37;7.97;;;;;;;8.29;81.60;99303.06;5524869;25;20009;-57
2024/04/18 05:41:59;;;;;;;14.02;8.38;;;;;;;8.22;82.72;99301.78;5524896;25;20286;-61
2024/04/18 05:44:32;;;;;;;11.73;7.30;;;;;;;8.07;82.34;99302.78;5524471;25;19997;-57
2024/04/18 05:47:02;;;;;;;12.07;7.57;;;;;;;8.14;82.02;99310.25;5522170;25;20026;-58
2024/04/18 05:49:30;;;;;;;12.60;8.02;;;;;;;8.11;82.52;99309.63;5524172;25;19997;-58
2024/04/18 05:52:03;;;;;;;11.93;7.53;;;;;;;7.98;82.46;99313.03;5523702;25;20001;-63
2024/04/18 05:54:33;;;;;;;12.77;8.63;;;;;;;7.93;83.08;99315.16;5524139;25;20068;-58
2024/04/18 05:57:04;;;;;;;13.68;7.93;;;;;;;7.93;82.99;99320.47;5524268;25;20581;-55
2024/04/18 05:59:34;;;;;;;13.70;8.30;;;;;;;7.99;83.66;99312.09;5524503;25;20004;-59
2024/04/18 06:02:05;;;;;;;16.00;8.55;;;;;;;7.87;84.96;99312.88;5524204;25;20009;-59
2024/04/18 06:04:39;;;;;;;14.63;8.43;;;;;;;8.05;83.72;99326.78;5524445;25;20008;-56
2024/04/18 06:07:12;;;;;;;11.82;7.80;;;;;;;7.88;83.20;99329.66;5524205;25;20009;-59
2024/04/18 06:09:42;;;;;;;13.43;8.07;;;;;;;7.95;84.25;99318.56;5524394;25;20002;-59
2024/04/18 06:12:13;;;;;;;16.83;8.15;;;;;;;8.24;82.72;99326.44;5523562;25;19997;-59
2024/04/18 06:14:43;;;;;;;13.02;8.27;;;;;;;7.97;83.74;99327.28;5523670;25;20455;-58
2024/04/18 06:17:14;;;;;;;13.68;7.90;;;;;;;7.93;84.01;99322.28;5523606;25;19994;-58
2024/04/18 06:19:45;;;;;;;11.45;7.50;;;;;;;8.11;82.92;99330.88;5523764;25;20069;-57
2024/04/18 06:22:18;;;;;;;11.68;7.85;;;;;;;8.21;82.93;99337.28;5522319;26;20032;-59
2024/04/18 06:24:50;;;;;;;11.00;7.32;;;;;;;7.90;83.07;99343.69;5524216;25;19993;-56
2024/04/18 06:27:21;;;;;;;12.40;7.35;;;;;;;7.85;83.01;99346.66;5524150;25;20009;-56
2024/04/18 06:29:51;;;;;;;12.63;7.90;;;;;;;7.64;84.53;99342.69;5523840;25;19998;-62
2024/04/18 06:32:22;;;;;;;12.45;7.30;;;;;;;7.82;84.14;99346.00;5523765;25;20456;-57
2024/04/18 06:34:52;;;;;;;13.38;7.38;;;;;;;8.09;82.40;99344.22;5523896;25;20074;-60
2024/04/18 06:37:25;;;;;;;11.20;7.45;;;;;;;7.90;83.65;99341.88;5524395;25;20001;-55
2024/04/18 06:39:55;;;;;;;11.68;7.93;;;;;;;8.03;83.63;99342.84;5524371;25;20069;-58
2024/04/18 06:42:26;;;;;;;12.98;7.70;;;;;;;7.90;83.58;99349.00;5524027;25;19997;-59
2024/04/18 06:44:56;;;;;;;13.13;8.18;;;;;;;8.19;84.38;99345.31;5524298;25;19998;-59
2024/04/18 06:47:27;;;;;;;11.35;7.40;;;;;;;8.21;82.79;99338.13;5524197;25;19989;-58
2024/04/18 06:49:57;;;;;;;12.70;7.95;;;;;;;8.04;83.54;99341.88;5524034;25;20001;-61
2024/04/18 06:52:30;;;;;;;10.27;7.47;;;;;;;8.35;82.40;99344.38;5523702;25;20001;-56
2024/04/18 06:55:01;;;;;;;14.25;8.23;;;;;;;8.48;81.56;99343.47;5523428;25;20007;-58
2024/04/18 06:57:32;;;;;;;14.10;8.13;;;;;;;8.53;81.22;99348.50;5523520;25;20025;-59
2024/04/18 07:00:02;;;;;;;14.18;8.05;;;;;;;8.37;81.54;99340.66;5523581;25;20423;-58
2024/04/18 07:02:33;;;;;;;13.32;8.02;;;;;;;8.53;80.95;99345.84;5523699;25;19998;-58
2024/04/18 07:05:04;;;;;;;12.98;8.50;;;;;;;8.80;81.44;99354.63;5514329;25;20074;-58
2024/04/18 07:07:37;;;;;;;11.52;7.30;;;;;;;8.81;80.84;99352.81;5485804;26;20005;-57
2024/04/18 07:10:08;;;;;;;12.35;6.97;;;;;;;9.06;80.55;99358.16;5495676;26;20009;-57
2024/04/18 07:12:38;;;;;;;11.75;7.57;;;;;;;8.87;80.33;99363.88;5486204;26;20029;-58
2024/04/18 07:15:09;;;;;;;13.40;7.75;;;;;;;8.93;80.74;99356.47;5486501;26;20012;-59
2024/04/18 07:17:39;;;;;;;13.52;8.23;;;;;;;9.38;80.31;99355.97;5486297;26;19994;-59
2024/04/18 07:20:11;;;;;;;12.10;7.20;;;;;;;9.62;77.62;99361.38;5486327;26;19994;-60
2024/04/18 07:22:44;;;;;;;11.77;7.40;;;;;;;9.66;76.69;99357.56;5496028;26;20081;-59
2024/04/18 07:25:15;;;;;;;10.93;7.03;;;;;;;9.60;76.65;99358.00;5504363;26;20038;-59
2024/04/18 07:27:45;;;;;;;11.60;7.20;;;;;;;9.88;75.43;99361.38;5502020;25;20006;-57
2024/04/18 07:30:16;;;;;;;12.57;7.60;;;;;;;9.88;75.72;99361.38;5503473;25;20029;-60
2024/04/18 07:32:46;;;;;;;12.77;7.15;;;;;;;9.65;76.33;99365.63;5501756;26;20016;-60
2024/04/18 07:35:17;;;;;;;11.40;6.85;;;;;;;9.97;75.62;99368.69;5502381;25;20459;-56
2024/04/18 07:37:51;;;;;;;10.02;7.40;;;;;;;10.40;73.69;99376.28;5501974;26;19997;-59
2024/04/18 07:40:22;;;;;;;10.77;6.55;;;;;;;10.38;72.99;99375.53;5491637;25;20013;-59
2024/04/18 07:42:53;;;;;;;10.70;6.93;;;;;;;10.57;72.66;99381.22;5485877;26;19998;-59
2024/04/18 07:45:23;;;;;;;9.65;6.63;;;;;;;10.58;73.30;99380.25;5485734;26;20009;-60
2024/04/18 07:47:54;;;;;;;8.35;5.18;;;;;;;10.39;71.41;99377.25;5486069;26;19998;-60
2024/04/18 07:50:24;;;;;;;8.10;5.68;;;;;;;10.47;71.48;99385.53;5486207;26;19994;-60
2024/04/18 07:52:57;;;;;;;10.10;6.18;;;;;;;10.85;70.65;99388.88;5485842;26;19994;-60
2024/04/18 07:55:38;;;;;;;10.48;6.53;;;;;;;10.34;72.26;99388.25;5485959;26;19998;-57
2024/04/18 07:58:08;;;;;;;8.38;5.60;;;;;;;10.39;70.53;99388.75;5485830;26;20027;-59
2024/04/18 08:00:39;;;;;;;7.65;4.93;;;;;;;10.38;70.49;99391.53;5484540;26;20069;-59
2024/04/18 08:03:12;;;;;;;7.63;5.00;;;;;;;10.53;70.42;99390.44;5510886;26;19998;-59
2024/04/18 08:05:47;;;;;;;7.15;4.72;;;;;;;10.71;68.73;99388.19;5520805;26;20331;-59
2024/04/18 08:08:24;;;;;;;8.15;4.82;;;;;;;10.56;68.90;99400.84;5522261;25;20351;-59
2024/04/18 08:10:59;;;;;;;7.05;4.50;;;;;;;10.57;68.34;99397.22;5521849;25;20004;-59
2024/04/18 08:13:49;;;;;;;7.25;4.53;;;;;;;11.07;67.45;99396.09;5521712;25;20029;-58
2024/04/18 08:16:27;;;;;;;7.65;4.28;;;;;;;11.39;66.23;99393.66;5522012;25;20326;-59
2024/04/18 08:18:57;;;;;;;8.05;4.90;;;;;;;11.55;65.49;99397.81;5522089;25;19997;-60
2024/04/18 08:21:27;;;;;;;7.65;4.70;;;;;;;11.44;65.28;99394.16;5521768;25;20029;-60
2024/04/18 08:24:01;;;;;;;8.68;4.57;;;;;;;11.79;64.43;99390.56;5521499;25;19997;-59
2024/04/18 08:26:32;;;;;;;6.65;4.28;;;;;;;12.18;62.91;99388.38;5521614;25;20361;-59
2024/04/18 08:29:02;;;;;;;8.52;3.83;;;;;;;12.20;59.16;99391.78;5523650;25;20090;-57
2024/04/18 08:31:36;;;;;;;7.28;4.03;;;;;;;12.55;59.54;99389.78;5523420;25;19993;-61
2024/04/18 08:34:07;;;;;;;7.93;4.60;;;;;;;13.13;58.26;99384.94;5521528;25;20005;-57
2024/04/18 08:36:47;;;;;;;7.70;4.78;;;;;;;13.15;56.92;99387.47;5523642;25;19993;-57
2024/04/18 08:39:21;;;;;;;6.25;4.22;;;;;;;13.07;56.58;99388.13;5524862;25;20719;-56
2024/04/18 08:41:51;;;;;;;;;;;;;;;12.98;55.75;99393.41;5525843;25;20003;-59
2024/04/18 08:44:22;;;;;;;5.93;3.58;;;;;;;12.43;55.49;99393.44;5524413;25;19930;-58
2024/04/18 08:46:53;;;;;;;5.45;3.45;;;;;;;11.73;58.75;99401.72;5525304;25;19997;-58
2024/04/18 08:49:26;;;;;;;6.00;3.70;;;;;;;11.27;61.59;99397.25;5525160;25;19993;-59
2024/04/18 08:51:57;;;;;;;7.43;4.38;;;;;;;11.24;62.31;99396.66;5525115;25;20395;-59
2024/04/18 08:54:32;;;;;;;6.60;4.18;;;;;;;11.74;62.29;99395.41;5525021;25;19997;-59
2024/04/18 08:57:07;;;;;;;6.95;4.15;;;;;;;11.89;60.89;99399.59;5524690;25;20007;-59
2024/04/18 08:59:37;;;;;;;6.03;4.45;;;;;;;11.58;62.07;99400.22;5525059;25;20006;-57
2024/04/18 09:02:09;;;;;;;6.50;4.13;;;;;;;11.78;62.12;99402.22;5525340;25;20065;-59
2024/04/18 09:04:39;;;;;;;7.10;3.95;;;;;;;11.95;61.27;99401.75;5525178;25;20012;-57
2024/04/18 09:07:10;;;;;;;6.45;4.03;;;;;;;11.93;60.65;99401.03;5525375;25;20008;-58
2024/04/18 09:09:43;;;;;;;7.65;4.45;;;;;;;11.81;61.39;99396.66;5525179;25;20027;-58
2024/04/18 09:12:14;;;;;;;7.40;4.35;;;;;;;12.09;61.90;99397.16;5524930;25;20004;-58
2024/04/18 09:14:45;;;;;;;5.85;4.20;;;;;;;12.57;60.19;99400.34;5525142;25;19993;-58
2024/04/18 09:17:16;;;;;;;7.45;4.47;;;;;;;12.93;59.37;99400.94;5524784;25;19998;-58
2024/04/18 09:19:46;;;;;;;6.75;4.28;;;;;;;13.17;58.45;99402.44;5525073;25;19998;-55
2024/04/18 09:22:17;;;;;;;5.85;4.00;;;;;;;13.03;58.66;99394.72;5524468;25;20519;-59
2024/04/18 09:24:50;;;;;;;5.40;3.78;;;;;;;12.81;57.07;99398.31;5525134;25;20013;-57
2024/04/18 09:27:20;;;;;;;;;;;;;;;12.49;57.36;99411.66;5525357;25;19997;-59
2024/04/18 09:29:51;;;;;;;7.25;4.70;;;;;;;12.20;59.98;99405.16;5524368;25;19928;-56
2024/04/18 09:32:22;;;;;;;9.45;4.57;;;;;;;11.93;60.19;99406.38;5524023;25;19997;-58
2024/04/18 09:34:55;;;;;;;7.53;4.50;;;;;;;12.20;60.18;99399.81;5524311;25;20009;-58
2024/04/18 09:37:29;;;;;;;;;;;;;;;12.52;59.40;99395.38;5524945;25;20330;-62
2024/04/18 09:40:02;;;;;;;7.95;4.47;;;;;;;12.30;59.51;99398.94;5524733;25;20217;-58
2024/04/18 09:42:40;;;;;;;6.55;4.45;;;;;;;12.47;59.21;99392.22;5524135;25;20009;-58
2024/04/18 09:45:14;;;;;;;6.95;4.22;;;;;;;12.94;58.36;99400.00;5524203;25;20098;-57
2024/04/18 09:47:47;;;;;;;6.05;3.88;;;;;;;12.82;54.75;99393.81;5522662;25;19997;-59
2024/04/18 09:50:17;;;;;;;6.10;3.45;;;;;;;13.09;53.89;99393.34;5524130;25;19990;-58
2024/04/18 09:52:49;;;;;;;4.90;3.30;;;;;;;13.71;53.38;99398.75;5523747;25;19994;-58
2024/04/18 09:55:23;;;;;;;5.60;3.40;;;;;;;13.99;53.53;99391.81;5524305;25;20012;-59
2024/04/18 09:57:56;;;;;;;6.28;3.97;;;;;;;14.04;51.70;99397.63;5524301;25;20064;-57
2024/04/18 10:00:28;;;;;;;6.78;3.97;;;;;;;13.78;52.24;99387.47;5524122;25;20038;-57
2024/04/18 10:03:00;;;;;;;7.03;4.00;;;;;;;13.97;52.33;99383.03;5493221;25;20016;-59
2024/04/18 10:05:30;;;;;;;6.05;3.90;;;;;;;14.24;52.16;99390.50;5487549;26;20010;-59
2024/04/18 10:08:02;;;;;;;6.63;4.15;;;;;;;14.44;52.68;99388.69;5487439;26;20435;-60
2024/04/18 10:10:38;;;;;;;8.23;4.40;;;;;;;14.42;52.56;99382.63;5487359;26;20079;-57
2024/04/18 10:13:11;;;;;;;5.88;3.88;;;;;;;14.59;51.47;99386.53;5486854;26;20357;-57
2024/04/18 10:15:43;;;;;;;6.45;3.85;;;;;;;14.70;51.61;99381.03;5487068;26;20066;-57
2024/04/18 10:18:17;;;;;;;6.07;4.10;;;;;;;14.75;50.64;99386.81;5487285;26;20013;-60
2024/04/18 10:20:48;;;;;;;6.88;4.13;;;;;;;14.55;50.42;99387.75;5487064;26;19994;-58
2024/04/18 10:23:18;;;;;;;5.60;4.15;;;;;;;14.44;51.66;99387.84;5486675;26;20315;-60
2024/04/18 10:25:59;;;;;;;5.38;3.67;;;;;;;14.08;50.13;99390.13;5486864;26;20469;-61
2024/04/18 10:28:30;;;;;;;5.38;3.67;;;;;;;13.75;51.93;99389.44;5487376;26;20004;-63
2024/04/18 10:31:09;;;;;;;5.68;4.00;;;;;;;13.90;51.70;99389.09;5487059;26;19998;-61
2024/04/18 10:33:42;;;;;;;7.20;3.88;;;;;;;13.60;49.47;99389.91;5507717;26;19997;-58
2024/04/18 10:36:15;;;;;;;5.72;3.50;;;;;;;13.83;48.49;99386.09;5523388;25;20474;-60
2024/04/18 10:38:48;;;;;;;5.38;3.35;;;;;;;13.81;49.38;99381.88;5523810;25;20069;-59
2024/04/18 10:41:24;;;;;;;5.65;3.17;;;;;;;13.65;49.03;99388.53;5523474;25;20008;-59
2024/04/18 10:43:54;;;;;;;6.32;3.47;;;;;;;13.72;47.93;99388.88;5523567;25;19997;-59
2024/04/18 10:46:26;;;;;;;5.00;2.95;;;;;;;13.88;48.94;99388.38;5522857;25;19997;-61
2024/04/18 10:48:56;;;;;;;6.95;3.63;;;;;;;13.82;47.78;99388.91;5522697;25;20446;-59
2024/04/18 10:51:29;;;;;;;6.07;3.15;;;;;;;13.38;46.82;99388.22;5522514;25;20012;-59
2024/04/18 10:54:00;;;;;;;4.32;2.90;;;;;;;13.46;46.56;99388.44;5521982;25;19994;-59
2024/04/18 10:56:33;;;;;;;5.10;3.00;;;;;;;13.88;46.68;99381.16;5522743;25;19997;-60
2024/04/18 10:59:03;;;;;;;4.78;2.60;;;;;;;13.90;44.93;99383.75;5522201;25;20022;-61
2024/04/18 11:01:37;;;;;;;11.82;7.35;;;;;;;13.85;44.74;99388.63;5522713;25;19993;-59
2024/04/18 11:04:09;;;;;;;17.42;9.93;;;;;;;14.44;44.83;99380.66;5522971;25;20001;-60
2024/04/18 11:06:41;;;;;;;5.15;2.60;;;;;;;14.58;43.47;99383.00;5523002;25;20001;-60
2024/04/18 11:09:15;;;;;;;3.67;2.47;;;;;;;14.65;42.55;99377.91;5522412;25;20450;-58
2024/04/18 11:11:49;;;;;;;4.85;2.67;;;;;;;14.48;42.08;99378.59;5522755;25;19994;-62
2024/04/18 11:14:21;;;;;;;4.18;2.38;;;;;;;14.36;41.88;99375.13;5522840;25;20025;-58
2024/04/18 11:17:00;;;;;;;5.10;2.58;;;;;;;14.16;41.99;99378.75;5522624;25;19993;-59
2024/04/18 11:19:31;;;;;;;3.95;2.50;;;;;;;13.57;41.79;99383.00;5521881;25;20492;-59
2024/04/18 11:22:02;;;;;;;4.30;2.45;;;;;;;13.80;41.74;99374.78;5522026;25;20008;-58
2024/04/18 11:24:32;;;;;;;4.97;2.60;;;;;;;13.90;41.34;99379.22;5521888;25;19993;-59
2024/04/18 11:27:08;;;;;;;4.45;2.50;;;;;;;13.94;41.78;99377.13;5521954;25;19994;-59
2024/04/18 11:29:40;;;;;;;5.30;2.42;;;;;;;13.66;41.55;99379.53;5521810;25;20061;-59
2024/04/18 11:32:13;;;;;;;3.53;2.25;;;;;;;13.65;41.21;99383.19;5521019;25;20033;-60
2024/04/18 11:34:46;;;;;;;4.00;2.40;;;;;;;13.78;41.09;99391.00;5520963;25;20040;-59
2024/04/18 11:37:23;;;;;;;5.32;2.45;;;;;;;13.45;40.56;99392.09;5521321;25;20013;-59
2024/04/18 11:39:57;;;;;;;3.72;2.15;;;;;;;13.60;40.89;99397.94;5521966;25;19997;-58
2024/04/18 11:42:30;;;;;;;5.32;2.28;;;;;;;13.85;40.84;99388.63;5521536;25;20002;-59
2024/04/18 11:45:00;;;;;;;3.67;1.90;;;;;;;13.86;39.38;99379.59;5522135;25;20009;-59
2024/04/18 11:47:31;;;;;;;4.45;2.35;;;;;;;14.39;39.77;99382.06;5521867;25;20038;-60
2024/04/18 11:50:02;;;;;;;4.13;2.30;;;;;;;14.58;41.52;99380.31;5522085;25;20439;-59
2024/04/18 11:52:33;;;;;;;5.03;2.53;;;;;;;14.73;41.13;99386.09;5522084;25;19997;-59
2024/04/18 11:55:03;;;;;;;5.03;2.30;;;;;;;14.43;39.31;99380.78;5522253;25;20474;-59
2024/04/18 11:57:36;;;;;;;4.63;2.50;;;;;;;14.05;39.37;99393.09;5508080;25;20502;-60
2024/04/18 12:00:07;;;;;;;;;;;;;;;13.49;39.44;99401.56;5486378;26;20005;-60